Time;durP1;ratioP1;P1;durP2;ratioP2;P2;SDS_P1;SDS_P2;PMS_P1;PMS_P2;Temp;Humidity;BMP_temperature;BMP_pressure;BME280_temperature;BME280_humidity;BME280_pressure;Samples;Min_cycle;Max_cycle;Signal;HPM_P1;HPM_P2
2022/06/09 00:03:06;;;;;;;4.70;4.60;;;18.80;1.00;;;;;;6258526;28;20252;-56
2022/06/09 00:06:11;;;;;;;4.70;4.60;;;18.80;1.00;;;;;;6254647;28;20340;-57
2022/06/09 00:09:17;;;;;;;5.07;4.83;;;18.90;1.00;;;;;;6243017;28;20276;-56
2022/06/09 00:12:22;;;;;;;5.97;5.00;;;18.90;1.00;;;;;;6257158;28;20603;-56
2022/06/09 00:15:26;;;;;;;5.50;5.30;;;18.90;1.00;;;;;;6259426;28;20786;-56
2022/06/09 00:18:29;;;;;;;5.10;4.90;;;18.90;1.00;;;;;;6257109;28;20331;-55
2022/06/09 00:21:32;;;;;;;4.87;4.67;;;18.90;1.00;;;;;;6252708;28;20323;-56
2022/06/09 00:24:36;;;;;;;5.50;5.20;;;18.90;1.00;;;;;;6257422;28;20318;-56
2022/06/09 00:27:40;;;;;;;5.93;5.63;;;18.90;1.00;;;;;;6257135;28;20234;-58
2022/06/09 00:30:43;;;;;;;4.87;4.70;;;18.90;1.00;;;;;;6232957;28;20386;-56
2022/06/09 00:33:46;;;;;;;6.03;5.70;;;18.90;1.00;;;;;;6246979;28;20261;-55
2022/06/09 00:36:49;;;;;;;5.80;5.60;;;19.00;1.00;;;;;;6251943;28;20377;-55
2022/06/09 00:39:54;;;;;;;4.87;4.67;;;19.00;1.00;;;;;;6249780;28;20488;-56
2022/06/09 00:42:59;;;;;;;5.57;5.20;;;19.00;1.00;;;;;;6260695;28;20388;-55
2022/06/09 00:46:10;;;;;;;5.00;4.70;;;19.00;1.00;;;;;;6236293;28;20260;-56
2022/06/09 00:49:19;;;;;;;4.80;4.60;;;19.00;1.00;;;;;;6256237;28;20233;-55
2022/06/09 00:52:25;;;;;;;4.00;3.90;;;19.00;1.00;;;;;;6244220;28;20790;-53
2022/06/09 00:55:33;;;;;;;4.60;4.40;;;19.00;1.00;;;;;;6244640;28;20409;-55
2022/06/09 00:58:39;;;;;;;4.20;4.00;;;19.00;1.00;;;;;;6233519;28;20251;-56
2022/06/09 01:01:43;;;;;;;4.07;3.97;;;19.00;1.00;;;;;;6232804;28;20234;-56
2022/06/09 01:04:48;;;;;;;3.70;3.60;;;19.00;1.00;;;;;;6252186;28;20329;-56
2022/06/09 01:07:55;;;;;;;3.87;3.73;;;19.10;1.00;;;;;;6255062;28;20671;-57
2022/06/09 01:11:00;;;;;;;3.50;3.40;;;19.10;1.00;;;;;;6247639;28;20335;-56
2022/06/09 01:14:04;;;;;;;4.93;3.80;;;19.10;1.00;;;;;;6258101;28;20959;-56
2022/06/09 01:17:15;;;;;;;3.67;3.67;;;19.00;1.00;;;;;;6237314;28;20238;-57
2022/06/09 01:20:28;;;;;;;3.87;3.40;;;19.00;1.00;;;;;;6252554;28;20306;-57
2022/06/09 01:24:12;;;;;;;4.10;3.90;;;19.00;1.00;;;;;;6256036;28;20241;-56
2022/06/09 01:27:35;;;;;;;3.83;3.63;;;19.00;1.00;;;;;;6225047;28;20474;-52
2022/06/09 01:30:46;;;;;;;3.80;3.67;;;19.00;1.00;;;;;;6232761;28;20723;-56
2022/06/09 01:33:58;;;;;;;3.43;3.43;;;18.90;1.00;;;;;;6243984;28;20412;-56
2022/06/09 01:37:06;;;;;;;3.90;3.80;;;18.90;1.00;;;;;;6255194;28;20406;-58
2022/06/09 01:40:12;;;;;;;3.80;3.70;;;18.90;1.00;;;;;;6258629;28;20610;-56
2022/06/09 01:43:15;;;;;;;3.90;3.80;;;18.90;1.00;;;;;;6260547;28;20238;-57
2022/06/09 01:46:24;;;;;;;3.60;3.50;;;18.90;1.00;;;;;;6254082;28;20230;-56
2022/06/09 01:49:32;;;;;;;4.00;3.30;;;18.90;1.00;;;;;;6252540;28;20246;-56
2022/06/09 01:52:37;;;;;;;3.47;3.30;;;18.80;1.00;;;;;;6257242;28;20245;-56
2022/06/09 01:55:45;;;;;;;3.07;3.07;;;18.80;1.00;;;;;;6256687;28;20242;-58
2022/06/09 01:58:55;;;;;;;3.27;3.17;;;18.80;1.00;;;;;;6256639;28;20313;-57
2022/06/09 02:02:04;;;;;;;3.40;3.30;;;18.70;1.00;;;;;;6231367;28;20668;-55
2022/06/09 02:05:11;;;;;;;2.93;2.83;;;18.70;1.00;;;;;;6247112;28;20826;-56
2022/06/09 02:08:17;;;;;;;3.20;3.10;;;18.70;1.00;;;;;;6246673;28;20312;-52
2022/06/09 02:11:21;;;;;;;3.20;3.00;;;18.70;1.00;;;;;;6286170;28;20259;-56
2022/06/09 02:14:28;;;;;;;3.17;3.07;;;18.70;1.00;;;;;;6274560;28;20237;-57
2022/06/09 02:17:42;;;;;;;3.23;3.00;;;18.70;1.00;;;;;;6255350;28;20673;-57
2022/06/09 02:20:49;;;;;;;2.90;2.80;;;18.70;1.00;;;;;;6287731;28;20417;-55
2022/06/09 02:23:53;;;;;;;3.43;3.10;;;18.60;1.00;;;;;;6303510;28;20325;-56
2022/06/09 02:26:56;;;;;;;2.87;2.77;;;18.70;1.00;;;;;;6295557;28;20265;-56
2022/06/09 02:29:59;;;;;;;2.90;2.80;;;18.60;1.00;;;;;;6281906;28;20244;-56
2022/06/09 02:33:04;;;;;;;3.53;3.30;;;18.60;1.00;;;;;;6256260;28;20303;-55
2022/06/09 02:36:07;;;;;;;3.23;3.13;;;18.50;1.00;;;;;;6250395;28;20775;-55
2022/06/09 02:39:11;;;;;;;3.00;3.00;;;18.50;1.00;;;;;;6239708;28;20233;-56
2022/06/09 02:42:14;;;;;;;3.10;3.00;;;18.40;1.00;;;;;;6257379;28;20718;-56
2022/06/09 02:45:17;;;;;;;3.37;3.27;;;18.40;1.00;;;;;;6247652;28;20416;-54
2022/06/09 02:48:22;;;;;;;3.20;2.97;;;18.40;1.00;;;;;;6239966;28;20368;-55
2022/06/09 02:51:28;;;;;;;3.07;2.97;;;18.30;1.00;;;;;;6256041;28;20249;-56
2022/06/09 02:54:31;;;;;;;3.13;3.10;;;18.20;1.00;;;;;;6253856;28;20379;-58
2022/06/09 02:57:34;;;;;;;3.20;3.10;;;18.20;1.00;;;;;;6255967;28;20510;-56
2022/06/09 03:00:38;;;;;;;2.90;2.90;;;18.10;1.00;;;;;;6254636;28;20325;-57
2022/06/09 03:03:42;;;;;;;3.40;3.20;;;18.10;1.00;;;;;;6242401;28;20621;-56
2022/06/09 03:06:45;;;;;;;3.30;3.20;;;18.00;1.00;;;;;;6253583;28;20246;-56
2022/06/09 03:09:50;;;;;;;3.27;3.17;;;18.00;1.00;;;;;;6255229;28;20336;-57
2022/06/09 03:12:55;;;;;;;2.80;2.67;;;18.00;1.00;;;;;;6261184;28;20658;-57
2022/06/09 03:15:57;;;;;;;3.50;3.20;;;17.90;1.00;;;;;;6255391;28;20281;-56
2022/06/09 03:19:02;;;;;;;3.37;3.17;;;17.80;1.00;;;;;;6271819;28;20366;-55
2022/06/09 03:22:05;;;;;;;2.90;2.90;;;17.90;1.00;;;;;;6303062;28;20300;-56
2022/06/09 03:25:09;;;;;;;3.13;3.03;;;17.80;1.00;;;;;;6305453;28;20233;-55
2022/06/09 03:28:12;;;;;;;3.30;3.10;;;17.80;1.00;;;;;;6267638;28;20568;-56
2022/06/09 03:31:15;;;;;;;3.00;2.97;;;17.80;1.00;;;;;;6252383;28;20291;-56
2022/06/09 03:34:19;;;;;;;3.13;3.03;;;17.70;1.00;;;;;;6265471;28;20237;-57
2022/06/09 03:37:23;;;;;;;3.13;2.90;;;17.70;1.00;;;;;;6274828;28;20370;-56
2022/06/09 03:40:28;;;;;;;2.97;2.90;;;17.70;1.00;;;;;;6276305;28;20244;-56
2022/06/09 03:43:31;;;;;;;3.50;3.20;;;17.70;1.00;;;;;;6289056;28;20282;-56
2022/06/09 03:46:34;;;;;;;3.60;3.43;;;17.70;1.00;;;;;;6277352;28;20276;-55
2022/06/09 03:49:39;;;;;;;2.70;2.70;;;17.70;1.00;;;;;;6277956;28;20385;-57
2022/06/09 03:52:42;;;;;;;3.17;3.07;;;17.70;1.00;;;;;;6281980;28;20238;-55
2022/06/09 03:55:45;;;;;;;3.20;2.93;;;17.70;1.00;;;;;;6278619;28;20378;-55
2022/06/09 03:58:48;;;;;;;3.20;3.10;;;17.70;1.00;;;;;;6283936;28;20797;-57
2022/06/09 04:01:51;;;;;;;3.50;3.20;;;17.70;1.00;;;;;;6283215;28;20241;-55
2022/06/09 04:04:56;;;;;;;3.60;3.30;;;17.70;1.00;;;;;;6280544;28;20237;-57
2022/06/09 04:08:00;;;;;;;3.47;2.87;;;17.70;1.00;;;;;;6280955;28;20348;-55
2022/06/09 04:11:03;;;;;;;2.87;2.77;;;17.80;1.00;;;;;;6288207;28;20734;-55
2022/06/09 04:14:06;;;;;;;3.00;2.70;;;17.80;1.00;;;;;;6282235;28;20392;-56
2022/06/09 04:17:10;;;;;;;3.00;2.80;;;17.80;1.00;;;;;;6278019;28;20637;-55
2022/06/09 04:20:16;;;;;;;3.00;2.90;;;17.80;1.00;;;;;;6308327;28;20221;-56
2022/06/09 04:23:19;;;;;;;3.03;2.93;;;17.90;1.00;;;;;;6308799;28;20347;-56
2022/06/09 04:26:23;;;;;;;3.20;3.00;;;17.90;1.00;;;;;;6317451;28;20228;-56
2022/06/09 04:29:27;;;;;;;3.30;3.20;;;17.90;1.00;;;;;;6319127;28;20271;-57
2022/06/09 04:32:30;;;;;;;2.90;2.80;;;18.00;1.00;;;;;;6313142;28;20785;-58
2022/06/09 04:35:34;;;;;;;5.37;3.40;;;18.00;1.00;;;;;;6322840;28;20229;-56
2022/06/09 04:38:37;;;;;;;3.30;3.20;;;18.00;1.00;;;;;;6320212;27;20244;-55
2022/06/09 04:41:40;;;;;;;2.77;2.67;;;18.00;1.00;;;;;;6318898;27;20240;-56
2022/06/09 04:44:43;;;;;;;3.20;3.00;;;18.10;1.00;;;;;;6324681;28;20236;-55
2022/06/09 04:47:46;;;;;;;3.20;2.97;;;18.10;1.00;;;;;;6327236;28;20326;-56
2022/06/09 04:50:51;;;;;;;3.80;2.80;;;18.20;1.00;;;;;;6327994;27;20390;-55
2022/06/09 04:53:54;;;;;;;3.33;3.00;;;18.30;1.00;;;;;;6328021;28;20339;-57
2022/06/09 04:56:58;;;;;;;3.50;2.70;;;18.40;1.00;;;;;;6329886;28;20324;-56
2022/06/09 05:00:01;;;;;;;4.77;3.10;;;18.60;1.00;;;;;;6332604;28;20232;-58
2022/06/09 05:03:04;;;;;;;3.87;2.87;;;18.90;1.00;;;;;;6331139;28;20243;-57
2022/06/09 05:06:10;;;;;;;2.60;2.33;;;19.30;1.00;;;;;;6329889;28;20228;-57
2022/06/09 05:09:12;;;;;;;2.87;2.63;;;19.70;1.00;;;;;;6325988;27;20479;-56
2022/06/09 05:12:15;;;;;;;2.47;2.23;;;20.10;1.00;;;;;;6332351;28;20232;-57
2022/06/09 05:15:20;;;;;;;2.20;2.20;;;20.30;1.00;;;;;;6328672;27;20235;-56
2022/06/09 05:18:25;;;;;;;2.57;1.87;;;20.60;1.00;;;;;;6325807;28;20508;-55
2022/06/09 05:21:29;;;;;;;2.37;1.90;;;20.90;1.00;;;;;;6332263;28;20232;-55
2022/06/09 05:24:32;;;;;;;2.20;2.00;;;20.80;1.00;;;;;;6330817;28;20725;-56
2022/06/09 05:27:35;;;;;;;2.17;2.07;;;20.70;1.00;;;;;;6328502;28;20848;-57
2022/06/09 05:30:38;;;;;;;2.53;2.27;;;20.50;1.00;;;;;;6331620;28;20323;-55
2022/06/09 05:33:42;;;;;;;2.40;2.20;;;20.40;1.00;;;;;;6327022;28;20243;-56
2022/06/09 05:36:46;;;;;;;3.70;2.30;;;20.30;1.00;;;;;;6325721;28;20240;-56
2022/06/09 05:46:42;;;;;;;2.67;2.57;;;20.00;1.00;;;;;;6328684;28;20299;-56
2022/06/09 05:49:51;;;;;;;2.97;2.40;;;20.00;1.00;;;;;;6313345;28;20228;-57
2022/06/09 05:52:55;;;;;;;2.20;1.93;;;20.00;1.00;;;;;;6321969;28;20243;-56
2022/06/09 05:55:58;;;;;;;2.10;2.00;;;19.90;1.00;;;;;;6309525;28;20232;-56
2022/06/09 05:59:01;;;;;;;1.90;1.90;;;19.90;1.00;;;;;;6318893;27;20909;-58
2022/06/09 06:02:04;;;;;;;2.33;2.00;;;19.80;1.00;;;;;;6325741;28;20729;-55
2022/06/09 06:06:33;;;;;;;1.93;1.93;;;19.90;1.00;;;;;;6315706;28;20299;-55
2022/06/09 06:08:33;;;;;;;3.30;2.20;;;19.80;1.00;;;;;;6325014;28;20736;-56
2022/06/09 06:11:38;;;;;;;2.17;2.07;;;19.90;1.00;;;;;;6330072;27;20309;-54
2022/06/09 06:14:41;;;;;;;2.00;1.80;;;19.90;1.00;;;;;;6331432;27;20246;-55
2022/06/09 06:17:44;;;;;;;2.57;2.00;;;19.90;1.00;;;;;;6324747;27;20236;-56
2022/06/09 06:20:47;;;;;;;2.00;1.90;;;19.90;1.00;;;;;;6334641;27;20244;-56
2022/06/09 06:23:51;;;;;;;1.87;1.77;;;20.00;1.00;;;;;;6332622;27;20780;-57
2022/06/09 06:26:54;;;;;;;1.93;1.83;;;20.00;1.00;;;;;;6330673;28;20242;-55
2022/06/09 06:29:57;;;;;;;2.83;2.33;;;20.00;1.00;;;;;;6333636;28;20730;-56
2022/06/09 06:33:00;;;;;;;2.10;2.00;;;19.90;1.00;;;;;;6325623;28;20236;-55
2022/06/09 06:36:04;;;;;;;2.87;1.87;;;19.90;1.00;;;;;;6338380;28;20231;-55
2022/06/09 06:39:09;;;;;;;2.27;2.17;;;20.10;1.00;;;;;;6332751;28;20255;-55
2022/06/09 06:42:11;;;;;;;1.80;1.80;;;20.40;1.00;;;;;;6321923;28;20607;-56
2022/06/09 06:45:15;;;;;;;2.10;1.90;;;20.80;1.00;;;;;;6338663;28;20386;-56
2022/06/09 06:48:18;;;;;;;1.93;1.90;;;21.10;1.00;;;;;;6327687;28;20235;-54
2022/06/09 06:51:21;;;;;;;4.07;1.87;;;21.40;1.00;;;;;;6329839;28;20243;-55
2022/06/09 06:54:25;;;;;;;2.00;1.90;;;21.50;1.00;;;;;;6329048;28;20250;-57
2022/06/09 06:57:28;;;;;;;2.10;1.87;;;21.60;1.00;;;;;;6337147;28;20483;-56
2022/06/09 07:00:31;;;;;;;3.70;2.10;;;21.70;1.00;;;;;;6327774;28;20312;-56
2022/06/09 07:03:34;;;;;;;1.90;1.90;;;21.60;1.00;;;;;;6331182;28;20502;-56
2022/06/09 07:06:38;;;;;;;2.20;2.00;;;21.70;1.00;;;;;;6331162;28;20235;-56
2022/06/09 07:09:43;;;;;;;1.87;1.80;;;21.50;1.00;;;;;;6322231;28;20364;-56
2022/06/09 07:12:45;;;;;;;3.43;2.00;;;21.40;1.00;;;;;;6329338;28;20236;-56
2022/06/09 07:15:49;;;;;;;2.33;2.13;;;21.40;1.00;;;;;;6332381;27;20528;-56
2022/06/09 07:18:52;;;;;;;2.30;2.20;;;21.10;1.00;;;;;;6338363;27;20411;-55
2022/06/09 07:21:55;;;;;;;2.30;2.23;;;21.00;1.00;;;;;;6339339;27;20235;-55
2022/06/09 07:25:05;;;;;;;2.70;2.40;;;20.80;1.00;;;;;;6335359;27;20714;-55
2022/06/09 07:28:08;;;;;;;5.23;2.60;;;20.70;1.00;;;;;;6343153;27;20272;-55
2022/06/09 07:31:11;;;;;;;2.60;2.40;;;20.50;1.00;;;;;;6343921;27;20668;-55
2022/06/09 07:34:14;;;;;;;2.30;2.20;;;20.40;1.00;;;;;;6344501;27;20387;-55
2022/06/09 07:37:17;;;;;;;2.67;2.50;;;20.30;1.00;;;;;;6321900;27;20232;-55
2022/06/09 07:40:22;;;;;;;2.40;2.30;;;20.30;1.00;;;;;;6335826;27;20307;-56
2022/06/09 07:43:25;;;;;;;3.13;2.97;;;20.10;1.00;;;;;;6337503;27;20255;-58
2022/06/09 07:46:29;;;;;;;2.90;2.57;;;20.10;1.00;;;;;;6335203;27;20443;-57
2022/06/09 07:49:33;;;;;;;4.73;3.00;;;20.00;1.00;;;;;;6332459;27;20228;-57
2022/06/09 07:52:36;;;;;;;5.33;2.70;;;19.90;1.00;;;;;;6334950;27;20232;-55
2022/06/09 07:55:41;;;;;;;2.80;2.60;;;19.90;1.00;;;;;;6338869;27;20317;-55
2022/06/09 07:58:45;;;;;;;2.70;2.60;;;19.80;1.00;;;;;;6331343;28;20732;-56
2022/06/09 08:01:48;;;;;;;3.67;2.97;;;19.80;1.00;;;;;;6332461;27;20232;-54
2022/06/09 08:04:51;;;;;;;4.17;2.80;;;19.60;1.00;;;;;;6340176;27;20365;-55
2022/06/09 08:07:54;;;;;;;3.17;2.87;;;19.60;1.00;;;;;;6300302;28;20235;-50
2022/06/09 08:10:58;;;;;;;2.97;2.77;;;19.60;1.00;;;;;;6334636;27;20238;-55
2022/06/09 08:14:03;;;;;;;3.50;2.70;;;19.70;1.00;;;;;;6334125;28;20631;-57
2022/06/09 08:17:06;;;;;;;2.70;2.50;;;19.60;1.00;;;;;;6330505;28;20716;-56
2022/06/09 08:20:10;;;;;;;3.23;2.90;;;19.60;1.00;;;;;;6331893;27;20750;-57
2022/06/09 08:23:28;;;;;;;3.63;2.97;;;19.50;1.00;;;;;;6274764;28;20407;-55
2022/06/09 08:26:33;;;;;;;3.50;3.30;;;19.50;1.00;;;;;;6258212;28;20832;-57
2022/06/09 08:29:36;;;;;;;3.10;2.90;;;19.50;1.00;;;;;;6266816;28;20355;-56
2022/06/09 08:32:39;;;;;;;3.23;3.13;;;19.40;1.00;;;;;;6277925;28;20736;-55
2022/06/09 08:35:44;;;;;;;5.00;3.30;;;19.30;1.00;;;;;;6267111;28;20269;-56
2022/06/09 08:38:48;;;;;;;4.60;2.90;;;19.30;1.00;;;;;;6276789;28;20391;-56
2022/06/09 08:42:08;;;;;;;3.37;3.17;;;19.20;1.00;;;;;;6264227;28;20241;-56
2022/06/09 08:45:16;;;;;;;4.40;3.10;;;19.20;1.00;;;;;;6271237;28;20242;-56
2022/06/09 08:48:22;;;;;;;3.20;3.10;;;19.20;1.00;;;;;;6271027;28;20252;-55
2022/06/09 08:51:36;;;;;;;2.73;2.57;;;19.10;1.00;;;;;;6271527;28;20754;-54
2022/06/09 08:54:39;;;;;;;3.13;2.83;;;19.10;1.00;;;;;;6295766;28;20323;-55
2022/06/09 08:57:44;;;;;;;2.60;2.53;;;19.10;1.00;;;;;;6327674;28;20355;-56
2022/06/09 09:00:51;;;;;;;3.13;3.03;;;19.00;1.00;;;;;;6325278;28;21149;-57
2022/06/09 09:03:58;;;;;;;4.23;2.97;;;19.00;1.00;;;;;;6332985;27;20231;-58
2022/06/09 09:07:11;;;;;;;3.27;3.03;;;19.00;1.00;;;;;;6330438;27;20313;-57
2022/06/09 09:10:19;;;;;;;3.23;2.93;;;18.90;1.00;;;;;;6330981;28;20383;-57
2022/06/09 09:13:33;;;;;;;4.47;3.30;;;18.90;1.00;;;;;;6335956;27;20263;-56
2022/06/09 09:16:46;;;;;;;3.60;3.40;;;18.90;1.00;;;;;;6319623;28;20234;-56
2022/06/09 09:19:53;;;;;;;3.60;3.30;;;18.80;1.00;;;;;;6325729;27;20225;-56
2022/06/09 09:23:03;;;;;;;3.40;3.30;;;18.80;1.00;;;;;;6320639;27;20227;-56
2022/06/09 09:26:37;;;;;;;3.50;3.40;;;18.90;1.00;;;;;;6331675;27;20466;-56
2022/06/09 09:29:47;;;;;;;3.73;3.63;;;18.90;1.00;;;;;;6335100;27;20260;-56
2022/06/09 09:32:55;;;;;;;3.77;3.57;;;19.00;1.00;;;;;;6337174;27;20669;-56
2022/06/09 09:36:03;;;;;;;3.80;3.60;;;18.90;1.00;;;;;;6319899;27;20312;-55
2022/06/09 09:39:15;;;;;;;3.60;3.30;;;19.00;1.00;;;;;;6322633;28;20237;-56
2022/06/09 09:42:21;;;;;;;3.77;3.57;;;19.10;1.00;;;;;;6326799;28;20709;-57
2022/06/09 09:45:33;;;;;;;3.70;3.40;;;19.20;1.00;;;;;;6336382;27;20316;-56
2022/06/09 09:48:42;;;;;;;4.47;3.37;;;19.20;1.00;;;;;;6340508;27;20251;-55
2022/06/09 09:51:46;;;;;;;3.50;3.30;;;19.40;1.00;;;;;;6329586;28;20313;-57
2022/06/09 09:54:49;;;;;;;3.80;3.60;;;19.60;1.00;;;;;;6332721;27;20372;-57
2022/06/09 09:58:14;;;;;;;3.27;3.17;;;19.70;1.00;;;;;;6334401;27;20239;-58
2022/06/09 10:08:35;;;;;;;3.83;3.53;;;19.80;1.00;;;;;;6330505;27;20308;-57
2022/06/09 10:08:46;;;;;;;3.27;3.17;;;19.80;1.00;;;;;;6332887;27;20235;-57
2022/06/09 10:11:57;;;;;;;3.70;3.50;;;19.90;1.00;;;;;;6339043;27;20228;-56
2022/06/09 10:15:04;;;;;;;5.10;3.90;;;19.90;1.00;;;;;;6323796;27;20231;-56
2022/06/09 10:18:26;;;;;;;3.53;3.23;;;19.80;1.00;;;;;;6299740;28;20347;-53
2022/06/09 10:21:51;;;;;;;3.70;3.40;;;19.90;1.00;;;;;;6331417;27;20240;-58
2022/06/09 10:25:33;;;;;;;3.70;3.50;;;20.00;1.00;;;;;;6315266;28;20232;-56
2022/06/09 10:28:46;;;;;;;4.23;3.97;;;20.10;1.00;;;;;;6313728;28;20388;-56
2022/06/09 10:32:02;;;;;;;3.90;3.60;;;20.30;1.00;;;;;;6308240;28;20594;-55
2022/06/09 10:35:12;;;;;;;6.57;3.80;;;20.40;1.00;;;;;;6317999;28;20239;-57
2022/06/09 10:38:21;;;;;;;4.23;3.70;;;20.50;1.00;;;;;;6303787;28;20229;-58
2022/06/09 10:41:40;;;;;;;3.70;3.60;;;20.50;1.00;;;;;;6320240;28;20228;-55
2022/06/09 10:44:49;;;;;;;4.90;4.30;;;20.40;1.00;;;;;;6293221;28;20322;-56
2022/06/09 10:55:19;;;;;;;4.30;3.87;;;20.30;1.00;;;;;;6332424;28;20232;-57
2022/06/09 10:58:29;;;;;;;4.27;3.97;;;20.60;1.00;;;;;;6324088;27;20230;-56
2022/06/09 11:01:33;;;;;;;4.60;4.20;;;20.70;1.00;;;;;;6321976;28;20450;-56
2022/06/09 11:04:37;;;;;;;3.80;3.60;;;20.60;1.00;;;;;;6332939;28;20242;-56
2022/06/09 11:07:55;;;;;;;4.73;3.90;;;20.70;1.00;;;;;;6332184;28;20316;-57
2022/06/09 11:11:05;;;;;;;4.57;4.17;;;20.70;1.00;;;;;;6325440;28;20316;-56
2022/06/09 11:14:19;;;;;;;4.20;3.90;;;20.70;1.00;;;;;;6320681;28;20516;-56
2022/06/09 11:17:32;;;;;;;5.23;3.80;;;20.70;1.00;;;;;;6329736;27;20331;-56
2022/06/09 11:20:49;;;;;;;4.83;3.83;;;20.70;1.00;;;;;;6329336;28;20441;-56
2022/06/09 11:24:06;;;;;;;4.63;4.20;;;20.60;1.00;;;;;;6329378;28;20639;-55
2022/06/09 11:27:28;;;;;;;4.40;4.10;;;20.60;1.00;;;;;;6330233;28;20345;-55
2022/06/09 11:30:39;;;;;;;3.97;3.77;;;20.50;1.00;;;;;;6333116;28;20235;-56
2022/06/09 11:33:56;;;;;;;4.80;4.40;;;20.40;1.00;;;;;;6331326;28;20243;-56
2022/06/09 11:37:07;;;;;;;4.70;4.30;;;20.40;1.00;;;;;;6331741;28;20263;-56
2022/06/09 11:40:27;;;;;;;4.43;4.13;;;20.40;1.00;;;;;;6324803;28;20276;-56
2022/06/09 11:43:43;;;;;;;4.90;4.47;;;20.40;1.00;;;;;;6334389;28;20637;-55
2022/06/09 11:46:46;;;;;;;4.37;4.07;;;20.30;1.00;;;;;;6326104;28;20320;-56
2022/06/09 11:49:53;;;;;;;3.97;3.67;;;20.30;1.00;;;;;;6326992;28;20261;-56
2022/06/09 11:52:58;;;;;;;6.20;4.70;;;20.40;1.00;;;;;;6332250;28;20479;-56
2022/06/09 11:56:36;;;;;;;4.33;3.93;;;20.50;1.00;;;;;;6332427;28;20610;-57
2022/06/09 11:59:57;;;;;;;5.37;4.97;;;20.50;1.00;;;;;;6321339;28;20278;-61
2022/06/09 12:03:24;;;;;;;5.90;5.40;;;20.60;1.00;;;;;;6330988;28;20822;-56
2022/06/09 12:06:40;;;;;;;5.63;5.00;;;20.50;1.00;;;;;;6322404;28;20228;-55
2022/06/09 12:09:50;;;;;;;4.43;4.23;;;20.50;1.00;;;;;;6331399;28;20291;-56
2022/06/09 12:13:16;;;;;;;5.03;4.63;;;20.50;1.00;;;;;;6331684;28;20747;-56
2022/06/09 12:16:26;;;;;;;4.60;4.40;;;20.50;1.00;;;;;;6331802;28;20231;-55
2022/06/09 12:19:35;;;;;;;4.50;4.30;;;20.50;1.00;;;;;;6326894;27;20294;-56
2022/06/09 12:22:50;;;;;;;4.80;4.40;;;20.60;1.00;;;;;;6331587;28;20365;-56
2022/06/09 12:26:35;;;;;;;5.43;5.07;;;20.70;1.00;;;;;;6303782;28;20705;-58
2022/06/09 12:29:46;;;;;;;4.83;4.53;;;20.80;1.00;;;;;;6292220;28;20737;-58
2022/06/09 12:32:50;;;;;;;4.90;4.57;;;20.90;1.00;;;;;;6327037;28;20279;-56
2022/06/09 12:35:56;;;;;;;4.33;4.13;;;21.00;1.00;;;;;;6325891;28;20331;-56
2022/06/09 12:39:00;;;;;;;4.57;4.30;;;21.10;1.00;;;;;;6320838;28;20321;-55
2022/06/09 12:42:06;;;;;;;4.10;3.90;;;21.00;1.00;;;;;;6326130;28;20349;-56
2022/06/09 12:45:16;;;;;;;4.27;3.87;;;21.20;1.00;;;;;;6322791;28;20239;-56
2022/06/09 12:48:19;;;;;;;4.53;4.23;;;21.30;1.00;;;;;;6324995;28;20591;-54
2022/06/09 12:51:27;;;;;;;5.03;4.73;;;21.40;1.00;;;;;;6323303;28;20271;-56
2022/06/09 12:54:33;;;;;;;5.27;4.67;;;21.40;1.00;;;;;;6329868;28;20800;-56
2022/06/09 12:57:46;;;;;;;4.93;4.53;;;21.40;1.00;;;;;;6319763;28;20240;-62
2022/06/09 13:00:55;;;;;;;4.67;4.37;;;21.40;1.00;;;;;;6326920;28;20307;-55
2022/06/09 13:04:01;;;;;;;4.53;4.30;;;21.30;1.00;;;;;;6317611;28;20333;-56
2022/06/09 13:07:22;;;;;;;5.13;4.77;;;21.10;1.00;;;;;;6319124;28;20341;-55
2022/06/09 13:10:28;;;;;;;5.37;4.90;;;21.00;1.00;;;;;;6326189;27;20224;-55
2022/06/09 13:13:40;;;;;;;6.20;5.60;;;20.80;1.00;;;;;;6322805;28;20674;-55
2022/06/09 13:16:48;;;;;;;6.00;5.50;;;20.80;1.00;;;;;;6325488;28;20264;-57
2022/06/09 13:19:58;;;;;;;9.50;5.83;;;20.70;1.00;;;;;;6324856;28;20249;-56
2022/06/09 13:23:01;;;;;;;8.53;5.60;;;20.60;1.00;;;;;;6323159;28;20366;-56
2022/06/09 13:26:05;;;;;;;5.73;5.33;;;20.60;1.00;;;;;;6331588;28;20307;-56
2022/06/09 13:29:10;;;;;;;6.03;5.53;;;20.70;1.00;;;;;;6318967;28;20313;-54
2022/06/09 13:32:26;;;;;;;6.77;6.00;;;20.80;1.00;;;;;;6325507;28;20241;-55
2022/06/09 13:35:40;;;;;;;5.87;5.37;;;20.90;1.00;;;;;;6325639;28;20233;-57
2022/06/09 13:38:43;;;;;;;6.07;5.77;;;20.90;1.00;;;;;;6311754;28;20243;-56
2022/06/09 13:41:47;;;;;;;6.00;5.50;;;20.90;1.00;;;;;;6298949;28;20376;-55
2022/06/09 13:45:03;;;;;;;5.57;5.27;;;20.90;1.00;;;;;;6329037;28;20250;-56
2022/06/09 13:48:16;;;;;;;6.27;5.73;;;21.00;1.00;;;;;;6322219;28;20492;-56
2022/06/09 13:51:29;;;;;;;6.33;5.73;;;21.00;1.00;;;;;;6325261;28;20378;-56
2022/06/09 13:54:39;;;;;;;5.87;5.40;;;21.10;1.00;;;;;;6318480;28;20624;-56
2022/06/09 13:57:45;;;;;;;6.37;5.87;;;21.20;1.00;;;;;;6324694;28;20248;-56
2022/06/09 14:00:51;;;;;;;6.00;5.37;;;21.30;1.00;;;;;;6323009;28;20343;-56
2022/06/09 14:04:04;;;;;;;6.53;5.90;;;21.30;1.00;;;;;;6329552;28;20262;-55
2022/06/09 14:07:07;;;;;;;6.37;5.77;;;21.30;1.00;;;;;;6326883;28;20381;-55
2022/06/09 14:10:18;;;;;;;6.50;5.90;;;21.20;1.00;;;;;;6322539;28;20518;-56
2022/06/09 14:13:21;;;;;;;6.00;5.70;;;21.20;1.00;;;;;;6329468;28;20319;-56
2022/06/09 14:16:27;;;;;;;6.30;5.70;;;21.20;1.00;;;;;;6327211;28;20865;-55
2022/06/09 14:19:31;;;;;;;6.90;6.27;;;21.20;1.00;;;;;;6327610;28;20314;-56
2022/06/09 14:22:34;;;;;;;6.50;5.90;;;21.20;1.00;;;;;;6321539;28;20340;-57
2022/06/09 14:25:37;;;;;;;7.30;6.70;;;21.10;1.00;;;;;;6325846;28;20244;-54
2022/06/09 14:28:40;;;;;;;7.40;6.63;;;21.00;1.00;;;;;;6326520;28;20626;-56
2022/06/09 14:31:44;;;;;;;7.30;6.77;;;20.90;1.00;;;;;;6322283;28;20555;-55
2022/06/09 14:34:49;;;;;;;8.73;7.10;;;20.70;1.00;;;;;;6329790;28;20255;-55
2022/06/09 14:37:52;;;;;;;7.63;6.83;;;20.60;1.00;;;;;;6317799;28;20371;-56
2022/06/09 14:40:55;;;;;;;7.03;6.57;;;20.60;1.00;;;;;;6316010;28;20947;-56
2022/06/09 14:43:58;;;;;;;8.40;7.60;;;20.50;1.00;;;;;;6331370;28;20732;-58
2022/06/09 14:47:01;;;;;;;8.40;7.07;;;20.50;1.00;;;;;;6300234;28;20740;-55
2022/06/09 14:50:07;;;;;;;7.60;6.97;;;20.50;1.00;;;;;;6321165;28;20288;-58
2022/06/09 14:53:13;;;;;;;10.00;7.73;;;20.50;1.00;;;;;;6327404;28;20333;-57
2022/06/09 14:56:18;;;;;;;7.63;7.13;;;20.50;1.00;;;;;;6327976;28;20638;-57
2022/06/09 14:59:21;;;;;;;7.40;6.90;;;20.60;1.00;;;;;;6328253;28;20247;-58
2022/06/09 15:02:24;;;;;;;7.50;7.00;;;20.70;1.00;;;;;;6327959;28;20322;-57
2022/06/09 15:05:34;;;;;;;9.33;8.47;;;20.70;1.00;;;;;;6326516;28;20642;-57
2022/06/09 15:08:37;;;;;;;7.07;6.73;;;20.80;1.00;;;;;;6325638;28;20255;-56
2022/06/09 15:11:41;;;;;;;8.93;8.13;;;20.80;1.00;;;;;;6320996;28;20235;-57
2022/06/09 15:14:44;;;;;;;8.93;8.10;;;20.80;1.00;;;;;;6312582;28;20239;-58
2022/06/09 15:17:48;;;;;;;7.70;7.00;;;20.80;1.00;;;;;;6326980;28;20315;-58
2022/06/09 15:20:53;;;;;;;8.30;7.60;;;20.80;1.00;;;;;;6323868;28;20301;-58
2022/06/09 15:23:56;;;;;;;9.00;7.63;;;20.90;1.00;;;;;;6318538;28;20228;-58
2022/06/09 15:26:59;;;;;;;7.73;6.90;;;20.90;1.00;;;;;;6326431;28;20320;-58
2022/06/09 15:30:02;;;;;;;8.93;7.33;;;21.00;1.00;;;;;;6327413;28;20322;-58
2022/06/09 15:33:05;;;;;;;11.33;8.30;;;21.00;1.00;;;;;;6328539;28;20359;-58
2022/06/09 15:36:11;;;;;;;7.97;7.50;;;21.00;1.00;;;;;;6322690;28;20225;-57
2022/06/09 15:39:14;;;;;;;7.70;7.00;;;21.00;1.00;;;;;;6328136;28;20768;-58
2022/06/09 15:42:17;;;;;;;8.23;7.43;;;21.10;1.00;;;;;;6329517;28;20761;-58
2022/06/09 15:45:20;;;;;;;9.00;8.30;;;21.10;1.00;;;;;;6327672;27;20225;-58
2022/06/09 15:48:27;;;;;;;8.80;7.53;;;21.20;1.00;;;;;;6318548;28;20753;-58
2022/06/09 15:51:32;;;;;;;9.17;7.60;;;21.40;1.00;;;;;;6331819;28;20410;-57
2022/06/09 15:54:34;;;;;;;7.40;6.70;;;21.60;1.00;;;;;;6328642;28;20306;-57
2022/06/09 15:57:37;;;;;;;8.97;8.17;;;21.80;1.00;;;;;;6321503;28;20232;-56
2022/06/09 16:00:41;;;;;;;8.47;7.80;;;22.00;1.00;;;;;;6326463;28;20358;-57
2022/06/09 16:03:44;;;;;;;8.10;7.40;;;22.30;1.00;;;;;;6326765;28;20240;-57
2022/06/09 16:06:48;;;;;;;10.47;9.40;;;22.50;1.00;;;;;;6330358;28;20387;-58
2022/06/09 16:09:52;;;;;;;7.57;6.97;;;22.60;1.00;;;;;;6329143;28;20360;-58
2022/06/09 16:12:55;;;;;;;8.60;7.90;;;22.80;1.00;;;;;;6325196;28;20324;-57
2022/06/09 16:15:58;;;;;;;9.00;8.30;;;23.00;1.00;;;;;;6328594;28;20400;-56
2022/06/09 16:19:01;;;;;;;8.70;7.90;;;23.10;1.00;;;;;;6323034;28;20235;-57
2022/06/09 16:22:06;;;;;;;7.03;6.43;;;23.00;1.00;;;;;;6331212;28;20312;-56
2022/06/09 16:25:09;;;;;;;7.80;7.00;;;22.90;1.00;;;;;;6328611;28;20242;-58
2022/06/09 16:28:13;;;;;;;6.67;6.20;;;22.90;1.00;;;;;;6323985;28;20333;-54
2022/06/09 16:31:16;;;;;;;8.77;6.53;;;23.00;1.00;;;;;;6319997;27;20738;-55
2022/06/09 16:34:19;;;;;;;7.30;6.20;;;22.90;1.00;;;;;;6318215;28;20228;-56
2022/06/09 16:37:23;;;;;;;6.67;5.97;;;22.70;1.00;;;;;;6328300;28;20282;-59
2022/06/09 16:40:30;;;;;;;6.90;6.40;;;22.50;1.00;;;;;;6324727;27;20368;-57
2022/06/09 16:43:33;;;;;;;5.90;5.40;;;22.50;1.00;;;;;;6328792;28;20236;-56
2022/06/09 16:46:36;;;;;;;6.37;5.87;;;22.40;1.00;;;;;;6324892;28;20756;-57